EFOU

Oulu Airport

Oulu / Oulunsalo, Finland
METAR EFOU 201450Z AUTO 33002KT 9999 FEW054/// M19/M21 Q1030
Observed Flight Rules
Feb-20 @ 14:50 UTC (2 hours ago) Visual Flight Rules
Wind Visibility Clouds
330° at 2 knots 10,000+ meters
  • Few at 5,400' AGL
Temperatures Readings
Current -19°C / -2°F
Dewpoint -21°C / -6°F
Humidity 84%
Altimeter 30.41" Hg
Pressure 1030 hPa
Elevation 15
METAR EFOU 201450Z AUTO 33002KT 9999 FEW054/// M19/M21 Q1030
Observed Flight Rules
Feb-20 @ 14:50 UTC
(2 hours ago)
VFR
Wind Visibility
330° at 2 knots 10,000+ meters
Clouds
  • Few at 5,400' AGL
Temperature Dewpoint
-19°C / -2°F -21°C / -6°F
Humidity Altimeter Pressure
84% 30.41" Hg 1030 hPa